createdAt,value
2018-03-07T00:00:30.625Z,0.00
2018-03-07T00:01:30.564Z,0.00
2018-03-07T00:02:30.506Z,0.00
2018-03-07T00:03:30.447Z,0.00
2018-03-07T00:04:30.390Z,0.00
2018-03-07T00:05:30.326Z,0.00
2018-03-07T00:06:30.268Z,0.00
2018-03-07T00:07:30.208Z,0.00
2018-03-07T00:08:30.152Z,0.00
2018-03-07T00:09:30.089Z,0.00
2018-03-07T00:10:30.028Z,0.00
2018-03-07T00:11:29.970Z,0.00
2018-03-07T00:12:29.911Z,0.00
2018-03-07T00:13:29.856Z,0.00
2018-03-07T00:14:29.793Z,0.00
2018-03-07T00:15:29.733Z,0.00
2018-03-07T00:16:29.675Z,0.00
2018-03-07T00:17:29.615Z,0.00
2018-03-07T00:18:29.557Z,0.00
2018-03-07T00:19:29.495Z,0.00
2018-03-07T00:20:29.435Z,0.00
2018-03-07T00:21:29.380Z,0.00
2018-03-07T00:22:29.318Z,0.00
2018-03-07T00:23:29.258Z,0.00
2018-03-07T00:24:29.198Z,0.00
2018-03-07T00:25:29.140Z,0.00
2018-03-07T00:26:29.080Z,0.00
2018-03-07T00:27:29.021Z,0.00
2018-03-07T00:28:28.963Z,0.00
2018-03-07T00:29:28.903Z,0.00
2018-03-07T00:30:28.844Z,0.00
2018-03-07T00:31:28.784Z,0.00
2018-03-07T00:32:28.724Z,0.00
2018-03-07T00:33:28.664Z,0.00
2018-03-07T00:34:28.607Z,0.00
2018-03-07T00:35:28.546Z,0.00
2018-03-07T00:36:28.486Z,0.00
2018-03-07T00:37:28.434Z,0.00
2018-03-07T00:38:28.371Z,0.00
2018-03-07T00:39:28.308Z,0.00
2018-03-07T00:40:28.251Z,0.00
2018-03-07T00:41:28.192Z,0.00
2018-03-07T00:42:28.130Z,0.00
2018-03-07T00:43:28.078Z,0.00
2018-03-07T00:44:28.022Z,0.00
2018-03-07T00:45:27.952Z,0.00
2018-03-07T00:46:27.894Z,0.00
2018-03-07T00:47:27.835Z,0.00
2018-03-07T00:48:27.774Z,0.00
2018-03-07T00:49:27.715Z,0.00
2018-03-07T00:50:27.655Z,0.00
2018-03-07T00:51:27.596Z,0.00
2018-03-07T00:52:27.537Z,0.00
2018-03-07T00:53:27.477Z,0.00
2018-03-07T00:54:27.420Z,0.00
2018-03-07T00:55:27.356Z,0.00
2018-03-07T00:56:27.300Z,0.00
2018-03-07T00:57:27.245Z,0.00
2018-03-07T00:58:27.179Z,0.00
2018-03-07T00:59:27.120Z,0.00
2018-03-07T01:00:27.060Z,0.00
2018-03-07T01:01:27.004Z,0.00
2018-03-07T01:02:26.941Z,0.00
2018-03-07T01:03:26.882Z,0.00
2018-03-07T01:04:26.821Z,0.00
2018-03-07T01:05:26.763Z,0.00
2018-03-07T01:06:26.704Z,0.00
2018-03-07T01:07:26.643Z,0.00
2018-03-07T01:08:26.584Z,0.00
2018-03-07T01:09:26.525Z,0.00
2018-03-07T01:10:26.465Z,0.00
2018-03-07T01:11:26.411Z,0.00
2018-03-07T01:12:26.347Z,0.00
2018-03-07T01:13:26.289Z,0.00
2018-03-07T01:14:26.227Z,0.00
2018-03-07T01:15:26.166Z,0.00
2018-03-07T01:16:26.109Z,0.00
2018-03-07T01:17:26.050Z,0.00
2018-03-07T01:18:25.992Z,0.00
2018-03-07T01:19:25.932Z,0.00
2018-03-07T01:20:25.871Z,0.00
2018-03-07T01:21:25.814Z,0.00
2018-03-07T01:22:25.751Z,0.00
2018-03-07T01:23:25.692Z,0.00
2018-03-07T01:24:25.670Z,0.00
2018-03-07T01:25:25.575Z,0.00
2018-03-07T01:26:25.514Z,0.00
2018-03-07T01:27:25.460Z,0.00
2018-03-07T01:28:25.398Z,0.00
2018-03-07T01:29:25.340Z,0.00
2018-03-07T01:30:25.275Z,0.00
2018-03-07T01:31:25.218Z,0.00
2018-03-07T01:32:25.157Z,0.00
2018-03-07T01:33:25.099Z,0.00
2018-03-07T01:34:25.041Z,0.00
2018-03-07T01:35:24.979Z,0.00
2018-03-07T01:36:24.919Z,0.00
2018-03-07T01:37:24.858Z,0.00
2018-03-07T01:38:24.799Z,0.00
2018-03-07T01:39:24.739Z,0.00
2018-03-07T01:40:24.682Z,0.00
2018-03-07T01:41:24.623Z,0.00
2018-03-07T01:42:24.565Z,0.00
2018-03-07T01:43:24.503Z,0.00
2018-03-07T01:44:24.442Z,0.00
2018-03-07T01:45:24.383Z,0.00
2018-03-07T01:46:24.322Z,0.00
2018-03-07T01:47:24.268Z,0.00
2018-03-07T01:48:24.205Z,0.00
2018-03-07T01:49:24.145Z,0.00
2018-03-07T01:50:24.085Z,0.00
2018-03-07T01:51:24.030Z,0.00
2018-03-07T01:52:23.966Z,0.00
2018-03-07T01:53:23.909Z,0.00
2018-03-07T01:54:23.848Z,0.00
2018-03-07T01:55:23.788Z,0.00
2018-03-07T01:56:23.732Z,0.00
2018-03-07T01:57:23.669Z,0.00
2018-03-07T01:58:23.610Z,0.00
2018-03-07T01:59:23.552Z,0.00
2018-03-07T02:00:23.490Z,0.00
2018-03-07T02:01:23.432Z,0.38
2018-03-07T02:02:23.370Z,1.14
2018-03-07T02:03:23.311Z,1.99
2018-03-07T02:04:23.256Z,6.45
2018-03-07T02:05:23.195Z,5.21
2018-03-07T02:06:23.133Z,3.98
2018-03-07T02:07:23.072Z,3.98
2018-03-07T02:08:23.014Z,4.83
2018-03-07T02:09:22.953Z,9.58
2018-03-07T02:10:22.900Z,8.25
2018-03-07T02:11:22.834Z,14.04
2018-03-07T02:12:22.776Z,15.94
2018-03-07T02:13:22.716Z,12.90
2018-03-07T02:14:22.656Z,11.00
2018-03-07T02:15:22.595Z,10.63
2018-03-07T02:16:22.541Z,11.10
2018-03-07T02:17:22.479Z,10.25
2018-03-07T02:18:22.415Z,11.47
2018-03-07T02:19:22.356Z,10.53
2018-03-07T02:20:22.298Z,9.39
2018-03-07T02:21:22.239Z,8.92
2018-03-07T02:22:22.177Z,9.01
2018-03-07T02:23:22.118Z,9.20
2018-03-07T02:24:22.059Z,8.63
2018-03-07T02:25:22.004Z,7.87
2018-03-07T02:26:21.938Z,8.16
2018-03-07T02:27:21.877Z,8.54
2018-03-07T02:28:21.820Z,7.78
2018-03-07T02:29:21.760Z,8.91
2018-03-07T02:30:21.701Z,10.05
2018-03-07T02:31:21.642Z,9.39
2018-03-07T02:32:21.581Z,10.05
2018-03-07T02:33:21.522Z,9.39
2018-03-07T02:34:21.461Z,9.86
2018-03-07T02:35:21.405Z,9.86
2018-03-07T02:36:21.343Z,10.25
2018-03-07T02:37:21.283Z,10.43
2018-03-07T02:38:21.222Z,9.67
2018-03-07T02:39:21.166Z,10.72
2018-03-07T02:40:21.108Z,9.39
2018-03-07T02:41:21.046Z,9.29
2018-03-07T02:42:20.983Z,9.01
2018-03-07T02:43:20.926Z,9.10
2018-03-07T02:44:20.867Z,7.87
2018-03-07T02:45:20.813Z,8.63
2018-03-07T02:46:20.750Z,8.91
2018-03-07T02:47:20.690Z,8.25
2018-03-07T02:48:20.631Z,8.91
2018-03-07T02:49:20.568Z,8.06
2018-03-07T02:50:20.509Z,8.53
2018-03-07T02:51:20.453Z,8.63
2018-03-07T02:52:20.391Z,8.91
2018-03-07T02:53:20.381Z,7.78
2018-03-07T02:54:20.268Z,7.40
2018-03-07T02:55:20.213Z,7.01
2018-03-07T02:56:20.148Z,5.97
2018-03-07T02:57:20.091Z,5.69
2018-03-07T02:58:20.032Z,4.36
2018-03-07T02:59:19.984Z,3.31
2018-03-07T03:00:19.909Z,4.08
2018-03-07T03:01:19.852Z,3.60
2018-03-07T03:02:19.791Z,3.31
2018-03-07T03:03:19.733Z,3.13
2018-03-07T03:04:19.672Z,4.36
2018-03-07T03:05:19.614Z,4.36
2018-03-07T03:06:19.554Z,4.74
2018-03-07T03:07:19.493Z,5.02
2018-03-07T03:08:19.436Z,5.97
2018-03-07T03:09:19.375Z,5.97
2018-03-07T03:10:19.317Z,8.06
2018-03-07T03:11:19.257Z,9.01
2018-03-07T03:12:19.196Z,9.48
2018-03-07T03:13:19.134Z,11.10
2018-03-07T03:14:19.077Z,10.72
2018-03-07T03:15:19.015Z,11.19
2018-03-07T03:16:18.963Z,12.99
2018-03-07T03:17:18.896Z,15.08
2018-03-07T03:18:18.840Z,16.98
2018-03-07T03:19:18.781Z,18.31
2018-03-07T03:20:18.719Z,21.44
2018-03-07T03:21:18.658Z,21.63
2018-03-07T03:22:18.597Z,21.44
2018-03-07T03:23:18.540Z,24.10
2018-03-07T03:24:18.478Z,25.24
2018-03-07T03:25:18.420Z,23.72
2018-03-07T03:26:18.361Z,22.58
2018-03-07T03:27:18.300Z,21.54
2018-03-07T03:28:18.244Z,21.44
2018-03-07T03:29:18.190Z,21.82
2018-03-07T03:30:18.128Z,21.73
2018-03-07T03:31:18.067Z,22.01
2018-03-07T03:32:18.005Z,23.91
2018-03-07T03:33:17.943Z,22.30
2018-03-07T03:34:17.883Z,21.15
2018-03-07T03:35:17.823Z,21.25
2018-03-07T03:36:17.762Z,22.39
2018-03-07T03:37:17.704Z,25.43
2018-03-07T03:38:17.644Z,21.92
2018-03-07T03:39:17.586Z,22.11
2018-03-07T03:40:17.523Z,21.82
2018-03-07T03:41:17.465Z,20.68
2018-03-07T03:42:17.405Z,21.25
2018-03-07T03:43:17.345Z,20.02
2018-03-07T03:44:17.282Z,21.25
2018-03-07T03:45:17.228Z,21.15
2018-03-07T03:46:17.166Z,20.21
2018-03-07T03:47:17.111Z,23.24
2018-03-07T03:48:17.046Z,21.63
2018-03-07T03:49:16.988Z,22.30
2018-03-07T03:50:16.926Z,20.87
2018-03-07T03:51:16.867Z,21.25
2018-03-07T03:52:16.807Z,21.06
2018-03-07T03:53:16.747Z,20.40
2018-03-07T03:54:16.686Z,23.72
2018-03-07T03:55:16.631Z,21.25
2018-03-07T03:56:16.565Z,20.87
2018-03-07T03:57:16.512Z,21.35
2018-03-07T03:58:16.449Z,20.21
2018-03-07T03:59:16.388Z,20.68
2018-03-07T04:00:16.330Z,22.58
2018-03-07T04:01:16.270Z,22.39
2018-03-07T04:02:16.210Z,20.97
2018-03-07T04:03:16.151Z,21.92
2018-03-07T04:04:16.088Z,23.34
2018-03-07T04:05:16.033Z,21.25
2018-03-07T04:06:15.968Z,22.39
2018-03-07T04:07:15.911Z,21.25
2018-03-07T04:08:15.877Z,21.25
2018-03-07T04:09:15.791Z,19.73
2018-03-07T04:10:15.751Z,21.35
2018-03-07T04:11:15.681Z,21.82
2018-03-07T04:12:15.630Z,22.01
2018-03-07T04:13:15.554Z,20.78
2018-03-07T04:14:15.495Z,21.35
2018-03-07T04:15:15.434Z,20.50
2018-03-07T04:16:15.372Z,20.97
2018-03-07T04:17:15.313Z,19.64
2018-03-07T04:18:15.258Z,18.79
2018-03-07T04:19:15.196Z,18.60
2018-03-07T04:20:15.134Z,17.17
2018-03-07T04:21:15.078Z,18.79
2018-03-07T04:22:15.015Z,16.98
2018-03-07T04:23:14.955Z,16.98
2018-03-07T04:24:14.895Z,16.79
2018-03-07T04:25:14.837Z,16.98
2018-03-07T04:26:14.776Z,16.79
2018-03-07T04:27:14.720Z,17.08
2018-03-07T04:28:14.660Z,18.02
2018-03-07T04:29:14.596Z,19.92
2018-03-07T04:30:14.537Z,19.45
2018-03-07T04:31:14.475Z,18.98
2018-03-07T04:32:14.416Z,18.88
2018-03-07T04:33:14.359Z,18.12
2018-03-07T04:34:14.300Z,19.35
2018-03-07T04:35:14.239Z,19.17
2018-03-07T04:36:14.179Z,18.12
2018-03-07T04:37:14.121Z,18.02
2018-03-07T04:38:14.059Z,18.41
2018-03-07T04:39:13.999Z,17.27
2018-03-07T04:40:13.936Z,17.46
2018-03-07T04:41:13.876Z,17.46
2018-03-07T04:42:13.823Z,16.32
2018-03-07T04:43:13.757Z,15.94
2018-03-07T04:44:13.699Z,14.99
2018-03-07T04:45:13.639Z,11.19
2018-03-07T04:46:13.580Z,8.63
2018-03-07T04:47:13.517Z,5.31
2018-03-07T04:48:13.457Z,5.69
2018-03-07T04:49:13.398Z,2.47
2018-03-07T04:50:13.337Z,2.75
2018-03-07T04:51:13.281Z,0.00
2018-03-07T04:52:13.219Z,0.00
2018-03-07T04:53:13.161Z,0.00
2018-03-07T04:54:13.103Z,0.00
2018-03-07T04:55:13.038Z,0.00
2018-03-07T04:56:12.976Z,0.00
2018-03-07T04:57:12.919Z,0.00
2018-03-07T04:58:12.875Z,0.00
2018-03-07T04:59:12.801Z,0.00
2018-03-07T05:00:12.737Z,0.00
2018-03-07T05:01:12.677Z,0.00
2018-03-07T05:02:12.619Z,0.00
2018-03-07T05:03:12.558Z,0.00
2018-03-07T05:04:12.497Z,0.00
2018-03-07T05:05:12.437Z,0.00
2018-03-07T05:06:12.383Z,0.00
2018-03-07T05:07:12.318Z,0.00
2018-03-07T05:08:12.256Z,0.00
2018-03-07T05:09:12.197Z,0.00
2018-03-07T05:10:12.140Z,0.00
2018-03-07T05:11:12.074Z,0.00
2018-03-07T05:12:12.014Z,0.00
2018-03-07T05:13:11.955Z,0.00
2018-03-07T05:14:11.893Z,0.00
2018-03-07T05:15:11.832Z,0.00
2018-03-07T05:16:11.773Z,0.00
2018-03-07T05:17:11.745Z,0.00
2018-03-07T05:18:11.654Z,0.00
2018-03-07T05:19:11.590Z,0.00
2018-03-07T05:20:11.533Z,0.00
2018-03-07T05:21:11.472Z,0.00
2018-03-07T05:22:11.416Z,0.00
2018-03-07T05:23:11.352Z,0.00
2018-03-07T05:24:11.291Z,0.00
2018-03-07T05:25:11.228Z,0.00
2018-03-07T05:26:11.168Z,0.00
2018-03-07T05:27:11.107Z,0.00
2018-03-07T05:28:11.047Z,0.00
2018-03-07T05:29:10.987Z,0.00
2018-03-07T05:30:10.924Z,0.00
2018-03-07T05:31:10.865Z,0.00
2018-03-07T05:32:10.804Z,0.00
2018-03-07T05:33:10.744Z,0.00
2018-03-07T05:34:10.683Z,0.00
2018-03-07T05:35:10.622Z,0.00
2018-03-07T05:36:10.563Z,0.00
2018-03-07T05:37:10.504Z,0.00
2018-03-07T05:38:10.443Z,0.00
2018-03-07T05:39:10.384Z,0.00
2018-03-07T05:40:10.323Z,0.00
2018-03-07T05:41:10.262Z,0.00
2018-03-07T05:42:10.204Z,0.00
2018-03-07T05:43:10.156Z,0.00
2018-03-07T05:44:10.079Z,0.00
2018-03-07T05:45:10.017Z,0.00
2018-03-07T05:46:09.957Z,0.00
2018-03-07T05:47:09.897Z,0.00
2018-03-07T05:48:09.837Z,0.00
2018-03-07T05:49:09.777Z,0.00
2018-03-07T05:50:09.717Z,0.00
2018-03-07T05:51:09.655Z,0.00
2018-03-07T05:52:09.597Z,0.00
2018-03-07T05:53:09.534Z,0.00
2018-03-07T05:54:09.470Z,0.00
2018-03-07T05:55:09.414Z,0.00
2018-03-07T05:56:09.353Z,0.00
2018-03-07T05:57:09.292Z,0.00
2018-03-07T05:58:09.234Z,0.00
2018-03-07T05:59:09.169Z,0.00
2018-03-07T06:00:09.118Z,0.00
2018-03-07T06:01:09.049Z,0.00
2018-03-07T06:02:08.986Z,0.00
2018-03-07T06:03:08.927Z,0.00
2018-03-07T06:04:08.875Z,0.00
2018-03-07T06:05:08.832Z,0.00
2018-03-07T06:06:08.746Z,0.00
2018-03-07T06:07:08.682Z,0.00
2018-03-07T06:08:08.623Z,0.00
2018-03-07T06:09:08.562Z,0.00
2018-03-07T06:10:08.503Z,0.00
2018-03-07T06:11:08.439Z,0.00
2018-03-07T06:12:08.379Z,0.00
2018-03-07T06:13:08.318Z,0.00
2018-03-07T06:14:08.258Z,0.00
2018-03-07T06:15:08.201Z,0.00
2018-03-07T06:16:08.142Z,0.00
2018-03-07T06:17:08.082Z,0.00
2018-03-07T06:18:08.015Z,0.00
2018-03-07T06:19:07.956Z,0.00
2018-03-07T06:20:07.896Z,0.00
2018-03-07T06:21:07.836Z,0.00
2018-03-07T06:22:07.772Z,0.00
2018-03-07T06:23:07.710Z,0.00
2018-03-07T06:24:07.652Z,0.00
2018-03-07T06:25:07.592Z,0.00
2018-03-07T06:26:07.528Z,0.00
2018-03-07T06:27:07.469Z,0.00
2018-03-07T06:28:07.410Z,0.00
2018-03-07T06:29:07.347Z,0.00
2018-03-07T06:30:07.286Z,0.00
2018-03-07T06:31:07.226Z,0.00
2018-03-07T06:32:07.165Z,0.00
2018-03-07T06:33:07.107Z,0.00
2018-03-07T06:34:07.081Z,0.00
2018-03-07T06:35:06.988Z,0.00
2018-03-07T06:36:06.923Z,0.00
2018-03-07T06:37:06.863Z,0.00
2018-03-07T06:38:06.807Z,0.00
2018-03-07T06:39:06.739Z,0.00
2018-03-07T06:40:06.685Z,0.00
2018-03-07T06:41:06.679Z,0.00
2018-03-07T06:42:06.559Z,0.00
2018-03-07T06:43:06.498Z,0.00
2018-03-07T06:44:06.431Z,0.00
2018-03-07T06:45:06.379Z,0.00
2018-03-07T06:46:06.317Z,0.00
2018-03-07T06:47:06.257Z,0.00
2018-03-07T06:48:06.200Z,0.00
2018-03-07T06:49:06.135Z,0.00
2018-03-07T06:50:06.074Z,0.00
2018-03-07T06:51:06.015Z,0.00
2018-03-07T06:52:05.955Z,0.00
2018-03-07T06:53:05.935Z,0.00
2018-03-07T06:54:05.831Z,0.00
2018-03-07T06:55:05.772Z,0.00
2018-03-07T06:56:05.712Z,0.00
2018-03-07T06:57:05.652Z,0.00
2018-03-07T06:58:05.595Z,0.00
2018-03-07T06:59:05.531Z,0.00
2018-03-07T07:00:05.470Z,0.00
2018-03-07T07:01:05.411Z,0.00
2018-03-07T07:02:05.348Z,0.00
2018-03-07T07:03:05.292Z,0.00
2018-03-07T07:04:05.229Z,0.00
2018-03-07T07:05:05.174Z,0.00
2018-03-07T07:06:05.112Z,0.00
2018-03-07T07:07:05.049Z,0.00
2018-03-07T07:08:04.990Z,0.00
2018-03-07T07:09:04.929Z,0.00
2018-03-07T07:10:04.866Z,0.00
2018-03-07T07:11:04.814Z,0.09
2018-03-07T07:12:04.750Z,0.00
2018-03-07T07:13:04.690Z,2.27
2018-03-07T07:14:04.628Z,3.13
2018-03-07T07:15:04.568Z,0.00
2018-03-07T07:16:04.507Z,0.00
2018-03-07T07:17:04.449Z,2.47
2018-03-07T07:18:04.387Z,0.00
2018-03-07T07:19:04.329Z,0.66
2018-03-07T07:20:04.268Z,1.89
2018-03-07T07:21:04.209Z,9.10
2018-03-07T07:22:04.148Z,7.97
2018-03-07T07:23:04.094Z,3.31
2018-03-07T07:24:04.028Z,0.57
2018-03-07T07:25:03.969Z,4.74
2018-03-07T07:26:03.903Z,9.10
2018-03-07T07:27:03.847Z,6.73
2018-03-07T07:28:03.789Z,6.35
2018-03-07T07:29:03.732Z,7.30
2018-03-07T07:30:03.670Z,8.82
2018-03-07T07:31:03.609Z,5.31
2018-03-07T07:32:03.549Z,0.66
2018-03-07T07:33:03.494Z,7.40
2018-03-07T07:34:03.427Z,2.37
2018-03-07T07:35:03.370Z,5.21
2018-03-07T07:36:03.310Z,5.50
2018-03-07T07:37:03.251Z,2.18
2018-03-07T07:38:03.191Z,2.27
2018-03-07T07:39:03.130Z,3.22
2018-03-07T07:40:03.072Z,8.91
2018-03-07T07:41:03.010Z,7.20
2018-03-07T07:42:02.949Z,7.11
2018-03-07T07:43:02.890Z,13.56
2018-03-07T07:44:02.831Z,10.62
2018-03-07T07:45:02.773Z,11.38
2018-03-07T07:46:02.712Z,9.58
2018-03-07T07:47:02.648Z,6.92
2018-03-07T07:48:02.594Z,14.41
2018-03-07T07:49:02.533Z,15.08
2018-03-07T07:50:02.470Z,11.94
2018-03-07T07:51:02.411Z,4.93
2018-03-07T07:52:02.355Z,10.81
2018-03-07T07:53:02.290Z,10.81
2018-03-07T07:54:02.230Z,5.31
2018-03-07T07:55:02.172Z,9.01
2018-03-07T07:56:02.114Z,12.42
2018-03-07T07:57:02.054Z,6.26
2018-03-07T07:58:01.994Z,4.36
2018-03-07T07:59:01.932Z,6.07
2018-03-07T08:00:01.874Z,10.15
2018-03-07T08:01:01.825Z,14.61
2018-03-07T08:02:01.762Z,12.90
2018-03-07T08:03:01.693Z,16.79
2018-03-07T08:04:01.633Z,9.11
2018-03-07T08:05:01.575Z,13.09
2018-03-07T08:06:01.515Z,14.42
2018-03-07T08:07:01.459Z,14.89
2018-03-07T08:08:01.395Z,10.63
2018-03-07T08:09:01.337Z,8.25
2018-03-07T08:10:01.275Z,6.45
2018-03-07T08:11:01.215Z,11.10
2018-03-07T08:12:01.158Z,12.71
2018-03-07T08:13:01.101Z,14.51
2018-03-07T08:14:01.042Z,16.79
2018-03-07T08:15:00.976Z,21.35
2018-03-07T08:16:00.917Z,21.25
2018-03-07T08:17:00.867Z,18.79
2018-03-07T08:18:00.861Z,15.75
2018-03-07T08:19:00.738Z,15.84
2018-03-07T08:20:00.677Z,18.60
2018-03-07T08:21:00.621Z,16.22
2018-03-07T08:22:00.561Z,14.61
2018-03-07T08:23:00.501Z,21.25
2018-03-07T08:24:00.441Z,18.41
2018-03-07T08:25:00.383Z,18.02
2018-03-07T08:26:00.324Z,18.12
2018-03-07T08:27:00.259Z,19.26
2018-03-07T08:28:00.203Z,21.35
2018-03-07T08:29:00.144Z,20.68
2018-03-07T08:30:00.085Z,18.50
2018-03-07T08:31:00.023Z,15.84
2018-03-07T08:31:59.969Z,15.56
2018-03-07T08:32:59.904Z,32.45
2018-03-07T08:33:59.843Z,24.76
2018-03-07T08:34:59.788Z,26.38
2018-03-07T08:35:59.725Z,25.62
2018-03-07T08:36:59.666Z,29.70
2018-03-07T08:37:59.608Z,23.05
2018-03-07T08:38:59.548Z,26.57
2018-03-07T08:39:59.488Z,23.91
2018-03-07T08:40:59.429Z,29.79
2018-03-07T08:41:59.368Z,32.26
2018-03-07T08:42:59.310Z,28.08
2018-03-07T08:43:59.250Z,24.19
2018-03-07T08:44:59.189Z,31.02
2018-03-07T08:45:59.141Z,27.23
2018-03-07T08:46:59.070Z,25.81
2018-03-07T08:47:59.016Z,30.46
2018-03-07T08:48:58.954Z,31.88
2018-03-07T08:49:58.894Z,34.73
2018-03-07T08:50:58.836Z,34.73
2018-03-07T08:51:58.822Z,36.05
2018-03-07T08:52:58.714Z,34.92
2018-03-07T08:53:58.657Z,30.27
2018-03-07T08:54:58.596Z,37.10
2018-03-07T08:55:58.540Z,40.14
2018-03-07T08:56:58.477Z,38.71
2018-03-07T08:57:58.420Z,32.73
2018-03-07T08:58:58.358Z,43.55
2018-03-07T08:59:58.300Z,40.89
2018-03-07T09:00:58.239Z,41.37
2018-03-07T09:01:58.180Z,38.90
2018-03-07T09:02:58.118Z,34.73
2018-03-07T09:03:58.062Z,35.22
2018-03-07T09:04:58.003Z,38.26
2018-03-07T09:05:57.941Z,35.69
2018-03-07T09:06:57.881Z,41.39
2018-03-07T09:07:57.825Z,34.84
2018-03-07T09:08:57.762Z,48.13
2018-03-07T09:09:57.703Z,47.18
2018-03-07T09:10:57.641Z,43.57
2018-03-07T09:11:57.584Z,41.20
2018-03-07T09:12:57.524Z,39.11
2018-03-07T09:13:57.469Z,44.53
2018-03-07T09:14:57.404Z,48.99
2018-03-07T09:15:57.347Z,48.96
2018-03-07T09:16:57.287Z,48.77
2018-03-07T09:17:57.230Z,48.96
2018-03-07T09:18:57.226Z,42.05
2018-03-07T09:19:57.106Z,41.01
2018-03-07T09:20:57.048Z,42.15
2018-03-07T09:21:56.988Z,47.37
2018-03-07T09:22:56.928Z,43.38
2018-03-07T09:23:56.872Z,45.95
2018-03-07T09:24:56.813Z,43.95
2018-03-07T09:25:56.750Z,40.82
2018-03-07T09:26:56.691Z,50.51
2018-03-07T09:27:56.633Z,50.12
2018-03-07T09:28:56.626Z,45.54
2018-03-07T09:29:56.513Z,48.30
2018-03-07T09:30:56.454Z,40.99
2018-03-07T09:31:56.407Z,40.42
2018-03-07T09:32:56.345Z,41.96
2018-03-07T09:33:56.276Z,44.90
2018-03-07T09:34:56.223Z,44.71
2018-03-07T09:35:56.155Z,48.70
2018-03-07T09:36:56.101Z,47.66
2018-03-07T09:37:56.037Z,42.72
2018-03-07T09:38:55.980Z,45.47
2018-03-07T09:39:55.921Z,49.74
2018-03-07T09:40:55.858Z,48.99
2018-03-07T09:41:55.800Z,49.93
2018-03-07T09:42:55.740Z,54.87
2018-03-07T09:43:55.681Z,56.01
2018-03-07T09:44:55.621Z,58.10
2018-03-07T09:45:55.562Z,51.74
2018-03-07T09:46:55.502Z,49.65
2018-03-07T09:47:55.442Z,58.95
2018-03-07T09:48:55.383Z,57.06
2018-03-07T09:49:55.323Z,61.33
2018-03-07T09:50:55.266Z,56.68
2018-03-07T09:51:55.214Z,59.43
2018-03-07T09:52:55.146Z,58.58
2018-03-07T09:53:55.086Z,54.68
2018-03-07T09:54:55.027Z,66.46
2018-03-07T09:55:54.969Z,53.92
2018-03-07T09:56:54.915Z,58.48
2018-03-07T09:57:54.849Z,62.85
2018-03-07T09:58:54.791Z,60.88
2018-03-07T09:59:54.733Z,59.74
2018-03-07T10:00:54.673Z,60.50
2018-03-07T10:01:54.656Z,63.83
2018-03-07T10:02:54.559Z,66.49
2018-03-07T10:03:54.497Z,66.64
2018-03-07T10:04:54.431Z,70.63
2018-03-07T10:05:54.377Z,65.12
2018-03-07T10:06:54.322Z,65.25
2018-03-07T10:07:54.260Z,74.47
2018-03-07T10:08:54.201Z,70.76
2018-03-07T10:09:54.194Z,68.01
2018-03-07T10:10:54.084Z,74.66
2018-03-07T10:11:54.024Z,68.77
2018-03-07T10:12:53.968Z,69.91
2018-03-07T10:13:53.908Z,77.70
2018-03-07T10:14:53.854Z,74.75
2018-03-07T10:15:53.790Z,79.69
2018-03-07T10:16:53.731Z,70.48
2018-03-07T10:17:53.672Z,75.32
2018-03-07T10:18:53.614Z,79.97
2018-03-07T10:19:53.555Z,79.41
2018-03-07T10:20:53.512Z,78.36
2018-03-07T10:21:53.468Z,81.21
2018-03-07T10:22:53.381Z,69.91
2018-03-07T10:23:53.320Z,73.74
2018-03-07T10:24:53.262Z,81.06
2018-03-07T10:25:53.205Z,80.49
2018-03-07T10:26:53.144Z,79.16
2018-03-07T10:27:53.088Z,81.44
2018-03-07T10:28:53.029Z,81.06
2018-03-07T10:29:52.970Z,82.01
2018-03-07T10:30:52.924Z,81.92
2018-03-07T10:31:52.852Z,86.95
2018-03-07T10:32:52.834Z,84.67
2018-03-07T10:33:52.741Z,86.91
2018-03-07T10:34:52.679Z,83.11
2018-03-07T10:35:52.622Z,84.34
2018-03-07T10:36:52.569Z,84.25
2018-03-07T10:37:52.504Z,80.93
2018-03-07T10:38:52.449Z,78.50
2018-03-07T10:39:52.388Z,78.69
2018-03-07T10:40:52.331Z,83.34
2018-03-07T10:41:52.272Z,79.63
2018-03-07T10:42:52.214Z,83.53
2018-03-07T10:43:52.157Z,86.10
2018-03-07T10:44:52.099Z,87.43
2018-03-07T10:45:52.040Z,80.77
2018-03-07T10:46:51.985Z,83.82
2018-03-07T10:47:51.925Z,84.29
2018-03-07T10:48:51.867Z,84.95
2018-03-07T10:49:51.809Z,81.25
2018-03-07T10:50:51.753Z,81.63
2018-03-07T10:51:51.695Z,84.67
2018-03-07T10:52:51.634Z,84.48
2018-03-07T10:53:51.576Z,80.96
2018-03-07T10:54:51.517Z,81.82
2018-03-07T10:55:51.470Z,82.77
2018-03-07T10:56:51.405Z,88.09
2018-03-07T10:57:51.345Z,87.14
2018-03-07T10:58:51.286Z,83.53
2018-03-07T10:59:51.233Z,87.14
2018-03-07T11:00:51.171Z,92.37
2018-03-07T11:01:51.116Z,84.48
2018-03-07T11:02:51.055Z,86.52
2018-03-07T11:03:50.999Z,87.66
2018-03-07T11:04:50.934Z,92.13
2018-03-07T11:05:50.883Z,89.94
2018-03-07T11:06:50.825Z,92.22
2018-03-07T11:07:50.768Z,92.13
2018-03-07T11:08:50.708Z,93.55
2018-03-07T11:09:50.649Z,89.47
2018-03-07T11:10:50.599Z,90.23
2018-03-07T11:11:50.534Z,95.51
2018-03-07T11:12:50.477Z,94.13
2018-03-07T11:13:50.441Z,97.64
2018-03-07T11:14:50.364Z,98.03
2018-03-07T11:15:50.312Z,95.56
2018-03-07T11:16:50.250Z,94.79
2018-03-07T11:17:50.190Z,99.99
2018-03-07T11:18:50.161Z,96.22
2018-03-07T11:19:50.076Z,93.18
2018-03-07T11:20:50.018Z,93.37
2018-03-07T11:21:49.962Z,94.60
2018-03-07T11:22:49.903Z,97.98
2018-03-07T11:23:49.845Z,98.36
2018-03-07T11:24:49.821Z,95.79
2018-03-07T11:25:49.733Z,99.60
2018-03-07T11:26:49.672Z,95.98
2018-03-07T11:27:49.615Z,97.41
2018-03-07T11:28:49.558Z,96.46
2018-03-07T11:29:49.500Z,99.98
2018-03-07T11:30:49.446Z,95.60
2018-03-07T11:31:49.387Z,97.60
2018-03-07T11:32:49.329Z,98.08
2018-03-07T11:33:49.273Z,97.98
2018-03-07T11:34:49.216Z,97.60
2018-03-07T11:35:49.161Z,95.79
2018-03-07T11:36:49.100Z,97.22
2018-03-07T11:37:49.045Z,99.50
2018-03-07T11:38:48.986Z,97.98
2018-03-07T11:39:48.980Z,97.31
2018-03-07T11:40:48.874Z,99.99
2018-03-07T11:41:48.816Z,96.12
2018-03-07T11:42:48.760Z,96.26
2018-03-07T11:43:48.701Z,99.99
2018-03-07T11:44:48.647Z,99.99
2018-03-07T11:45:48.586Z,99.99
2018-03-07T11:46:48.534Z,99.99
2018-03-07T11:47:48.475Z,99.99
2018-03-07T11:48:48.416Z,99.99
2018-03-07T11:49:48.359Z,99.99
2018-03-07T11:50:48.304Z,99.99
2018-03-07T11:51:48.246Z,99.99
2018-03-07T11:52:48.188Z,99.99
2018-03-07T11:53:48.132Z,99.99
2018-03-07T11:54:48.072Z,99.99
2018-03-07T11:55:48.027Z,99.99
2018-03-07T11:56:47.959Z,99.99
2018-03-07T11:57:47.895Z,99.99
2018-03-07T11:58:47.854Z,99.99
2018-03-07T11:59:47.788Z,99.99
2018-03-07T12:00:47.730Z,99.99
2018-03-07T12:01:47.674Z,99.99
2018-03-07T12:02:47.615Z,99.99
2018-03-07T12:03:47.557Z,98.55
2018-03-07T12:04:47.502Z,99.99
2018-03-07T12:05:47.444Z,99.99
2018-03-07T12:06:47.384Z,99.99
2018-03-07T12:07:47.329Z,99.99
2018-03-07T12:08:47.271Z,99.99
2018-03-07T12:09:47.214Z,99.99
2018-03-07T12:10:47.155Z,99.99
2018-03-07T12:11:47.098Z,99.99
2018-03-07T12:12:47.046Z,99.99
2018-03-07T12:13:46.989Z,99.99
2018-03-07T12:14:46.927Z,99.99
2018-03-07T12:15:46.869Z,99.99
2018-03-07T12:16:46.814Z,99.99
2018-03-07T12:17:46.755Z,99.99
2018-03-07T12:18:46.695Z,99.99
2018-03-07T12:19:46.642Z,99.99
2018-03-07T12:20:46.583Z,99.99
2018-03-07T12:21:46.528Z,99.99
2018-03-07T12:22:46.470Z,99.99
2018-03-07T12:23:46.411Z,99.99
2018-03-07T12:24:46.354Z,99.99
2018-03-07T12:25:46.298Z,99.99
2018-03-07T12:26:46.238Z,99.99
2018-03-07T12:27:46.181Z,99.99
2018-03-07T12:28:46.122Z,99.99
2018-03-07T12:29:46.070Z,99.99
2018-03-07T12:30:46.010Z,99.99
2018-03-07T12:31:45.950Z,99.99
2018-03-07T12:32:45.893Z,99.99
2018-03-07T12:33:45.832Z,99.99
2018-03-07T12:34:45.776Z,99.99
2018-03-07T12:35:45.720Z,99.99
2018-03-07T12:36:45.660Z,99.99
2018-03-07T12:37:45.604Z,99.99
2018-03-07T12:38:45.544Z,99.99
2018-03-07T12:39:45.486Z,99.99
2018-03-07T12:40:45.436Z,99.99
2018-03-07T12:41:45.385Z,99.99
2018-03-07T12:42:45.317Z,99.99
2018-03-07T12:43:45.256Z,99.99
2018-03-07T12:44:45.202Z,99.99
2018-03-07T12:45:45.148Z,99.99
2018-03-07T12:46:45.089Z,99.99
2018-03-07T12:47:45.024Z,99.99
2018-03-07T12:48:44.974Z,99.99
2018-03-07T12:49:44.907Z,99.99
2018-03-07T12:50:44.853Z,99.99
2018-03-07T12:51:44.792Z,99.99
2018-03-07T12:52:44.736Z,99.99
2018-03-07T12:53:44.682Z,99.99
2018-03-07T12:54:44.619Z,99.99
2018-03-07T12:55:44.561Z,99.99
2018-03-07T12:56:44.502Z,99.99
2018-03-07T12:57:44.447Z,99.99
2018-03-07T12:58:44.387Z,99.99
2018-03-07T12:59:44.330Z,99.99
2018-03-07T13:00:44.272Z,99.99
2018-03-07T13:01:44.216Z,99.99
2018-03-07T13:02:44.154Z,99.99
2018-03-07T13:03:44.096Z,99.99